« Back
NWS Peachtree City, Ga » Text Product » AHN Terminal Aerodrome Forecast


Printer-friendly Version
Current Version              Previous Versions:   1  2  3  4  5  6  7  8  9  

Terminal Aerodrome Forecast

348
FTAK31 PAJN 251700
TAFAHN
TAF
PAHN 251738Z 2518/2618 09010G20KT P6SM -SHRA BKN020 OVC035
      WS020/19030KT
      TEMPO 2518/2522 3SM -SHRA BKN010 OVC025
     FM252200 10010KT P6SM -SHRA SCT030 BKN050
     FM260300 31010KT P6SM VCSH SCT030 BKN050
     FM261200 31010KT P6SM VCSH BKN050
      AMD LTD TO CLD VIS AND WIND=



USA.gov is the U.S. government's official web portal to all federal, state and local government web resources and services.